Time;durP1;ratioP1;P1;durP2;ratioP2;P2;SDS_P1;SDS_P2;PMS_P1;PMS_P2;Temp;Humidity;BMP_temperature;BMP_pressure;BME280_temperature;BME280_humidity;BME280_pressure;Samples;Min_cycle;Max_cycle;Signal;HPM_P1;HPM_P2
2023/06/06 00:02:30;;;;;;;4.80;4.30;;;;;;;16.82;94.86;100204.34;10378244;28;20112;-70
2023/06/06 00:07:32;;;;;;;5.32;4.20;;;;;;;16.56;95.87;100211.03;10377622;28;20046;-70
2023/06/06 00:12:34;;;;;;;4.35;3.95;;;;;;;16.43;97.93;100211.75;10377748;28;20484;-70
2023/06/06 00:17:38;;;;;;;7.20;4.20;;;;;;;16.38;98.73;100198.75;10377453;28;20084;-70
2023/06/06 00:22:40;;;;;;;4.50;4.10;;;;;;;16.13;100.00;100207.97;10376926;28;20499;-69
2023/06/06 00:27:42;;;;;;;5.38;4.40;;;;;;;16.33;100.00;100200.75;10377022;28;20080;-70
2023/06/06 00:32:44;;;;;;;4.75;4.43;;;;;;;16.19;100.00;100195.31;10376159;28;20416;-71
2023/06/06 00:37:46;;;;;;;4.40;4.10;;;;;;;16.02;100.00;100194.41;10376672;28;20492;-71
2023/06/06 00:42:49;;;;;;;4.80;4.30;;;;;;;16.06;100.00;100192.44;10375636;28;20426;-71
2023/06/06 00:47:51;;;;;;;4.55;4.15;;;;;;;15.99;100.00;100189.28;10377526;28;20511;-71
2023/06/06 00:52:53;;;;;;;5.07;4.60;;;;;;;16.04;100.00;100187.25;10378478;28;20042;-71
2023/06/06 00:57:56;;;;;;;4.63;4.22;;;;;;;16.09;100.00;100187.00;10378409;28;20085;-72
2023/06/06 01:02:59;;;;;;;5.47;5.00;;;;;;;15.98;100.00;100195.53;10375078;28;20046;-71
2023/06/06 01:08:01;;;;;;;5.10;4.60;;;;;;;15.84;100.00;100187.41;10375298;28;20046;-71
2023/06/06 01:13:19;;;;;;;4.65;4.30;;;;;;;15.74;100.00;100180.84;10375930;28;20124;-71
2023/06/06 01:18:22;;;;;;;5.32;4.82;;;;;;;15.67;100.00;100182.09;10374619;28;20042;-71
2023/06/06 01:23:24;;;;;;;5.05;4.32;;;;;;;15.74;100.00;100175.56;10374181;28;20569;-71
2023/06/06 01:28:27;;;;;;;5.38;4.88;;;;;;;15.72;100.00;100169.50;10374479;28;20392;-70
2023/06/06 01:33:54;;;;;;;6.10;4.30;;;;;;;15.57;100.00;100176.38;10373856;28;20046;-71
2023/06/06 01:39:03;;;;;;;5.85;5.35;;;;;;;15.51;100.00;100169.59;10380500;28;20042;-71
2023/06/06 01:44:08;;;;;;;5.60;5.20;;;;;;;15.47;100.00;100167.16;10381504;28;20500;-70
2023/06/06 01:49:11;;;;;;;5.75;5.25;;;;;;;15.45;100.00;100169.91;10381879;28;20100;-71
2023/06/06 01:54:13;;;;;;;5.88;5.47;;;;;;;15.33;100.00;100179.31;10383194;28;20046;-71
2023/06/06 01:59:14;;;;;;;5.35;4.95;;;;;;;15.45;100.00;100177.84;10382567;28;20052;-71
2023/06/06 02:04:17;;;;;;;5.65;5.15;;;;;;;15.32;100.00;100179.41;10381308;28;20401;-72
2023/06/06 02:09:19;;;;;;;6.00;5.60;;;;;;;15.33;100.00;100181.09;10382129;28;20049;-71
2023/06/06 02:14:21;;;;;;;6.40;5.65;;;;;;;15.51;100.00;100174.03;10383814;28;20053;-71
2023/06/06 02:19:23;;;;;;;6.53;5.95;;;;;;;15.39;100.00;100173.69;10381739;28;20067;-72
2023/06/06 02:24:24;;;;;;;5.03;4.72;;;;;;;15.27;100.00;100176.97;10383436;28;20388;-71
2023/06/06 02:29:26;;;;;;;5.55;5.15;;;;;;;15.32;100.00;100172.31;10382574;28;20092;-71
2023/06/06 02:34:28;;;;;;;6.70;6.05;;;;;;;15.12;100.00;100175.06;10381674;28;20188;-71
2023/06/06 02:39:30;;;;;;;6.03;5.47;;;;;;;15.16;100.00;100170.47;10380021;28;20057;-71
2023/06/06 02:44:34;;;;;;;5.78;5.28;;;;;;;15.17;100.00;100173.03;10363881;28;20503;-71
2023/06/06 02:49:36;;;;;;;6.43;5.80;;;;;;;15.17;100.00;100166.88;10381074;28;20080;-72
2023/06/06 02:54:38;;;;;;;7.47;6.82;;;;;;;15.18;100.00;100176.53;10379594;28;20396;-71
2023/06/06 02:59:40;;;;;;;5.95;5.45;;;;;;;15.23;100.00;100171.88;10380069;28;20042;-72
2023/06/06 03:04:45;;;;;;;6.40;5.90;;;;;;;15.15;100.00;100174.91;10378753;28;20049;-71
2023/06/06 03:09:47;;;;;;;6.18;5.78;;;;;;;15.32;100.00;100179.41;10379022;28;20454;-71
2023/06/06 03:14:53;;;;;;;6.82;6.22;;;;;;;15.40;100.00;100174.56;10378919;28;20415;-71
2023/06/06 03:20:06;;;;;;;7.70;6.35;;;;;;;15.25;100.00;100176.16;10379874;28;20103;-71
2023/06/06 03:25:13;;;;;;;7.47;6.93;;;;;;;15.23;100.00;100174.50;10378697;28;20048;-72
2023/06/06 03:30:17;;;;;;;8.67;8.03;;;;;;;15.21;100.00;100177.25;10378085;28;20100;-72
2023/06/06 03:35:19;;;;;;;8.73;8.02;;;;;;;15.23;100.00;100177.16;10379943;28;20347;-72
2023/06/06 03:40:24;;;;;;;8.20;7.40;;;;;;;15.14;100.00;100176.72;10378063;28;20049;-71
2023/06/06 03:45:26;;;;;;;8.52;7.93;;;;;;;15.12;100.00;100181.19;10378061;28;20034;-72
2023/06/06 03:50:28;;;;;;;8.05;7.35;;;;;;;15.23;100.00;100186.00;10376146;28;20046;-71
2023/06/06 03:55:33;;;;;;;8.38;7.80;;;;;;;14.98;100.00;100177.50;10376261;28;20046;-71
2023/06/06 04:00:35;;;;;;;9.15;8.40;;;;;;;14.82;100.00;100183.50;10377351;28;20050;-71
2023/06/06 04:05:37;;;;;;;8.68;7.95;;;;;;;14.88;100.00;100177.09;10378337;28;20044;-71
2023/06/06 04:10:39;;;;;;;9.65;8.80;;;;;;;14.82;100.00;100175.56;10359280;28;20042;-72
2023/06/06 04:15:41;;;;;;;8.50;7.90;;;;;;;14.99;100.00;100176.56;10375424;28;20451;-72
2023/06/06 04:20:44;;;;;;;7.82;7.32;;;;;;;15.04;100.00;100179.84;10375432;28;20137;-71
2023/06/06 04:25:46;;;;;;;8.93;8.25;;;;;;;14.87;100.00;100172.69;10375405;28;20041;-71
2023/06/06 04:30:52;;;;;;;8.52;7.82;;;;;;;14.83;100.00;100176.41;10421354;23;20046;-70
2023/06/06 04:35:57;;;;;;;8.00;7.30;;;;;;;15.04;100.00;100180.72;10397538;28;20099;-70
2023/06/06 04:41:00;;;;;;;7.63;7.03;;;;;;;15.06;100.00;100175.34;10413442;28;20046;-71
2023/06/06 04:46:22;;;;;;;9.25;8.38;;;;;;;14.92;100.00;100169.84;10413725;28;20041;-71
2023/06/06 04:51:32;;;;;;;8.50;7.82;;;;;;;14.84;100.00;100178.16;10413705;28;20069;-71
2023/06/06 04:56:34;;;;;;;8.88;8.15;;;;;;;14.86;100.00;100177.13;10414946;28;20508;-71
2023/06/06 05:01:36;;;;;;;8.52;7.93;;;;;;;14.83;100.00;100171.13;10414657;28;20045;-71
2023/06/06 05:06:40;;;;;;;7.93;7.22;;;;;;;14.72;100.00;100176.94;10414848;28;20092;-71
2023/06/06 05:11:46;;;;;;;10.48;9.65;;;;;;;14.82;100.00;100174.72;10418229;28;20064;-71
2023/06/06 05:16:51;;;;;;;;;;;;;;;14.72;100.00;100174.28;10423495;28;20042;-71
2023/06/06 05:21:53;;;;;;;10.73;9.93;;;;;;;14.91;100.00;100176.94;10424529;28;19964;-71
2023/06/06 05:26:54;;;;;;;9.98;9.18;;;;;;;14.91;100.00;100179.56;10420919;28;20045;-71
2023/06/06 05:31:59;;;;;;;8.75;8.15;;;;;;;15.05;100.00;100189.50;10423259;28;20371;-71
2023/06/06 05:37:01;;;;;;;8.48;7.88;;;;;;;14.84;100.00;100184.31;10423032;28;20490;-71
2023/06/06 05:42:03;;;;;;;8.60;7.80;;;;;;;14.99;100.00;100180.06;10422548;28;20056;-71
2023/06/06 05:47:05;;;;;;;8.60;7.90;;;;;;;15.00;100.00;100183.56;10422405;28;20582;-71
2023/06/06 05:52:07;;;;;;;9.82;9.13;;;;;;;15.02;100.00;100192.31;10421758;28;20128;-71
2023/06/06 05:57:22;;;;;;;9.63;8.88;;;;;;;15.13;100.00;100192.66;10421122;28;20120;-71
2023/06/06 06:02:25;;;;;;;9.25;8.63;;;;;;;15.18;100.00;100187.97;10422184;28;20434;-71
2023/06/06 06:07:28;;;;;;;9.50;8.70;;;;;;;15.24;100.00;100197.44;10422016;28;20041;-71
2023/06/06 06:12:29;;;;;;;10.32;9.63;;;;;;;15.19;100.00;100192.38;10422166;28;20562;-70
2023/06/06 06:17:31;;;;;;;10.48;9.65;;;;;;;15.31;100.00;100199.69;10421422;28;20041;-70
2023/06/06 06:22:33;;;;;;;8.35;7.63;;;;;;;15.58;100.00;100191.31;10421350;28;20046;-70
2023/06/06 06:27:37;;;;;;;8.95;8.38;;;;;;;15.45;100.00;100198.16;10421321;28;20095;-70
2023/06/06 06:32:41;;;;;;;8.23;7.63;;;;;;;15.54;100.00;100198.59;10421772;28;20487;-71
2023/06/06 06:37:43;;;;;;;8.30;7.70;;;;;;;15.79;100.00;100198.22;10420803;28;20045;-71
2023/06/06 06:42:45;;;;;;;9.00;8.30;;;;;;;15.81;100.00;100201.69;10419035;28;20148;-72
2023/06/06 06:48:02;;;;;;;9.75;8.40;;;;;;;15.74;100.00;100205.56;10433193;28;20091;-72
2023/06/06 06:53:07;;;;;;;9.15;8.43;;;;;;;15.68;100.00;100202.38;10424357;28;20046;-72
2023/06/06 06:58:08;;;;;;;8.48;7.78;;;;;;;15.89;100.00;100211.88;10420329;28;20124;-71
2023/06/06 07:03:10;;;;;;;8.20;7.63;;;;;;;16.05;100.00;100214.59;10419916;28;20072;-71
2023/06/06 07:08:12;;;;;;;7.63;7.03;;;;;;;16.06;100.00;100218.97;10419525;28;20037;-71
2023/06/06 07:13:14;;;;;;;8.05;7.50;;;;;;;15.98;100.00;100219.38;10419071;28;20087;-71
2023/06/06 07:18:16;;;;;;;7.72;7.18;;;;;;;16.08;100.00;100219.75;10418813;28;20403;-71
2023/06/06 07:23:18;;;;;;;8.70;8.20;;;;;;;16.12;100.00;100208.91;10419776;28;20489;-71
2023/06/06 07:28:20;;;;;;;8.40;7.80;;;;;;;16.11;100.00;100214.28;10417578;28;20037;-71
2023/06/06 07:33:21;;;;;;;7.72;7.22;;;;;;;16.20;100.00;100215.59;10415806;28;20152;-71
2023/06/06 07:38:23;;;;;;;8.52;7.88;;;;;;;16.05;100.00;100218.13;10418486;28;20483;-72
2023/06/06 07:43:25;;;;;;;7.32;6.63;;;;;;;16.24;100.00;100220.66;10420364;28;20075;-72
2023/06/06 07:48:27;;;;;;;5.93;5.53;;;;;;;16.35;100.00;100214.81;10440828;28;20060;-71
2023/06/06 07:53:28;;;;;;;6.05;5.65;;;;;;;16.52;100.00;100206.81;10438284;28;20136;-71
2023/06/06 07:58:40;;;;;;;5.38;4.97;;;;;;;16.58;100.00;100202.97;10417133;28;20120;-71
2023/06/06 08:03:42;;;;;;;7.63;7.13;;;;;;;16.65;100.00;100196.41;10451059;28;20044;-71
2023/06/06 08:08:48;;;;;;;7.25;6.85;;;;;;;16.63;100.00;100204.44;10424265;28;20455;-72
2023/06/06 08:13:50;;;;;;;11.13;6.40;;;;;;;16.73;100.00;100203.97;10418346;28;20046;-72
2023/06/06 08:18:52;;;;;;;6.72;6.32;;;;;;;16.97;100.00;100199.13;10417113;28;20091;-72
2023/06/06 08:23:55;;;;;;;7.40;6.90;;;;;;;17.01;100.00;100203.31;10418046;28;20042;-72
2023/06/06 08:28:57;;;;;;;6.65;6.25;;;;;;;16.97;100.00;100202.63;10416436;28;20064;-71
2023/06/06 08:33:59;;;;;;;6.95;6.47;;;;;;;16.92;100.00;100204.69;10416340;28;20049;-72
2023/06/06 08:39:01;;;;;;;6.55;6.15;;;;;;;16.62;100.00;100197.41;10415952;28;20407;-72
2023/06/06 08:44:03;;;;;;;8.05;7.55;;;;;;;16.78;100.00;100196.63;10416257;28;20041;-72
2023/06/06 08:49:07;;;;;;;7.47;6.97;;;;;;;17.11;100.00;100199.19;10415543;28;20102;-72
2023/06/06 08:54:10;;;;;;;6.75;6.30;;;;;;;17.37;100.00;100201.22;10416270;28;20124;-72
2023/06/06 08:59:13;;;;;;;7.72;7.25;;;;;;;17.60;100.00;100197.25;10415345;28;20038;-72
2023/06/06 09:04:16;;;;;;;5.50;5.20;;;;;;;17.73;100.00;100192.06;10414589;28;20069;-72
2023/06/06 09:09:19;;;;;;;6.10;5.70;;;;;;;17.98;100.00;100195.97;10416213;28;20414;-72
2023/06/06 09:14:21;;;;;;;6.93;6.40;;;;;;;17.74;100.00;100192.94;10414705;28;20099;-71
2023/06/06 09:19:27;;;;;;;5.97;5.45;;;;;;;18.16;100.00;100200.19;10414580;28;20446;-72
2023/06/06 09:24:29;;;;;;;6.78;6.28;;;;;;;18.04;100.00;100201.78;10414380;28;20049;-71
2023/06/06 09:29:38;;;;;;;5.88;5.47;;;;;;;18.19;100.00;100192.00;10415160;28;20495;-71
2023/06/06 09:34:40;;;;;;;6.00;5.70;;;;;;;18.03;100.00;100197.41;10415621;28;20046;-71
2023/06/06 09:39:41;;;;;;;6.18;5.78;;;;;;;17.88;100.00;100200.97;10414191;28;20111;-71
2023/06/06 09:44:43;;;;;;;6.65;6.25;;;;;;;17.70;100.00;100199.34;10415384;28;20545;-73
2023/06/06 09:49:45;;;;;;;7.55;7.15;;;;;;;17.62;100.00;100195.38;10414398;28;20045;-72
2023/06/06 09:54:47;;;;;;;7.35;6.85;;;;;;;17.73;100.00;100199.19;10414315;28;20088;-71
2023/06/06 09:59:53;;;;;;;8.60;8.10;;;;;;;17.83;100.00;100193.25;10418786;28;20132;-72
2023/06/06 10:04:55;;;;;;;7.20;6.78;;;;;;;17.84;100.00;100195.00;10422093;28;20099;-71
2023/06/06 10:09:58;;;;;;;6.50;6.10;;;;;;;17.90;100.00;100193.75;10421437;28;20124;-71
2023/06/06 10:15:01;;;;;;;7.65;7.18;;;;;;;17.76;100.00;100196.38;10422529;28;20095;-71
2023/06/06 10:20:09;;;;;;;7.03;6.53;;;;;;;17.85;100.00;100188.72;10420344;28;20052;-71
2023/06/06 10:25:13;;;;;;;7.70;7.10;;;;;;;18.08;100.00;100187.34;10419973;28;20056;-72
2023/06/06 10:30:21;;;;;;;9.00;8.32;;;;;;;18.25;100.00;100178.34;10418955;28;20046;-70
2023/06/06 10:35:24;;;;;;;7.82;7.30;;;;;;;18.40;100.00;100187.16;10421152;28;20088;-70
2023/06/06 10:40:26;;;;;;;7.55;7.15;;;;;;;18.45;100.00;100193.06;10420745;28;20471;-70
2023/06/06 10:45:49;;;;;;;6.88;6.40;;;;;;;18.43;99.79;100189.66;10420075;28;20045;-70
2023/06/06 10:50:53;;;;;;;7.15;6.72;;;;;;;18.04;100.00;100185.81;10419895;28;20499;-70
2023/06/06 10:55:55;;;;;;;7.75;7.30;;;;;;;18.03;100.00;100192.09;10419934;28;20049;-70
2023/06/06 11:01:05;;;;;;;8.18;7.68;;;;;;;18.02;100.00;100189.53;10419653;28;20104;-69
2023/06/06 11:06:08;;;;;;;7.18;6.63;;;;;;;18.06;100.00;100206.97;10420549;28;20390;-68
2023/06/06 11:11:23;;;;;;;3.50;3.20;;;;;;;17.43;100.00;100204.47;10419576;28;20045;-67
2023/06/06 11:16:37;;;;;;;3.67;2.67;;;;;;;17.21;100.00;100199.53;10418421;28;20072;-68
2023/06/06 11:21:40;;;;;;;3.00;2.40;;;;;;;17.02;100.00;100197.06;10418836;28;20530;-69
2023/06/06 11:26:43;;;;;;;3.13;2.92;;;;;;;17.02;100.00;100199.72;10417280;28;20048;-70
2023/06/06 11:31:45;;;;;;;2.20;2.00;;;;;;;17.00;100.00;100197.16;10419316;28;20042;-69
2023/06/06 11:36:51;;;;;;;3.03;2.60;;;;;;;17.12;100.00;100191.13;10419175;28;20095;-69
2023/06/06 11:41:53;;;;;;;3.45;2.25;;;;;;;17.55;100.00;100194.00;10418809;28;20050;-69
2023/06/06 11:46:55;;;;;;;2.50;2.30;;;;;;;17.72;100.00;100190.34;10418156;28;20063;-70
2023/06/06 11:51:59;;;;;;;6.20;3.42;;;;;;;18.04;100.00;100188.47;10377266;28;20048;-70
2023/06/06 11:57:05;;;;;;;3.30;2.88;;;;;;;18.00;100.00;100183.44;10376529;28;20045;-70
2023/06/06 12:02:07;;;;;;;2.97;2.78;;;;;;;18.29;100.00;100184.34;10377257;28;20407;-70
2023/06/06 12:07:09;;;;;;;3.20;3.00;;;;;;;18.48;100.00;100197.34;10376781;28;20042;-70
2023/06/06 12:12:12;;;;;;;4.40;2.88;;;;;;;18.52;100.00;100189.09;10377243;28;20046;-70
2023/06/06 12:17:16;;;;;;;3.60;3.30;;;;;;;18.90;100.00;100180.50;10376651;28;20069;-70
2023/06/06 12:22:31;;;;;;;2.78;2.53;;;;;;;19.27;100.00;100181.66;10375290;28;20084;-70
2023/06/06 12:27:39;;;;;;;2.53;2.33;;;;;;;19.16;100.00;100182.34;10375129;28;20042;-71
2023/06/06 12:32:41;;;;;;;3.70;2.60;;;;;;;19.20;96.37;100179.47;10375274;28;20042;-71
2023/06/06 12:37:45;;;;;;;3.67;2.03;;;;;;;19.33;90.75;100178.56;10374846;28;20084;-71
2023/06/06 12:42:59;;;;;;;2.95;2.72;;;;;;;19.37;95.74;100190.75;10374577;28;20046;-71
2023/06/06 12:48:00;;;;;;;3.30;2.53;;;;;;;19.14;97.79;100183.41;10374851;28;20046;-71
2023/06/06 12:53:02;;;;;;;3.55;3.25;;;;;;;19.07;100.00;100177.59;10374514;28;20454;-71
2023/06/06 12:58:05;;;;;;;3.45;3.25;;;;;;;18.79;100.00;100169.69;10373212;28;20617;-71
2023/06/06 13:03:09;;;;;;;3.65;3.35;;;;;;;18.59;100.00;100174.44;10375046;28;20125;-71
2023/06/06 13:08:11;;;;;;;3.65;3.38;;;;;;;18.95;100.00;100169.56;10374763;28;20046;-72
2023/06/06 13:13:29;;;;;;;4.10;3.65;;;;;;;19.06;100.00;100170.56;10376172;28;20096;-72
2023/06/06 13:18:31;;;;;;;4.60;4.20;;;;;;;18.69;100.00;100156.13;10374354;28;20038;-71
2023/06/06 13:23:37;;;;;;;5.35;4.90;;;;;;;18.52;100.00;100174.91;10373551;28;20444;-71
2023/06/06 13:28:39;;;;;;;5.25;4.85;;;;;;;18.30;100.00;100162.09;10372927;28;20092;-70
2023/06/06 13:33:41;;;;;;;5.85;5.45;;;;;;;18.46;100.00;100161.97;10378957;28;20109;-71
2023/06/06 13:38:46;;;;;;;4.65;4.35;;;;;;;18.85;100.00;100161.31;10383472;28;20042;-71
2023/06/06 13:43:48;;;;;;;5.32;5.03;;;;;;;19.35;100.00;100167.84;10382850;28;20052;-71
2023/06/06 13:48:49;;;;;;;4.85;4.55;;;;;;;19.80;100.00;100157.75;10381474;28;20491;-71
2023/06/06 13:53:52;;;;;;;5.38;5.07;;;;;;;19.97;99.82;100154.78;10381458;28;20063;-71
2023/06/06 13:58:54;;;;;;;3.63;3.42;;;;;;;19.86;93.02;100146.63;10381912;28;20044;-71
2023/06/06 14:04:00;;;;;;;3.90;3.60;;;;;;;19.88;93.44;100150.94;10379103;28;20104;-71
2023/06/06 14:09:02;;;;;;;4.57;4.28;;;;;;;19.36;97.88;100146.41;10381095;28;20049;-71
2023/06/06 14:14:05;;;;;;;4.30;4.00;;;;;;;18.93;100.00;100143.03;10380314;28;20129;-71
2023/06/06 14:19:13;;;;;;;4.28;3.97;;;;;;;18.77;100.00;100143.16;10381791;28;20069;-71
2023/06/06 14:24:16;;;;;;;4.45;3.92;;;;;;;18.65;100.00;100144.75;10381338;28;20097;-71
2023/06/06 14:29:18;;;;;;;3.53;3.33;;;;;;;18.56;100.00;100139.16;10380996;28;20096;-71
2023/06/06 14:34:20;;;;;;;3.38;3.13;;;;;;;18.53;100.00;100147.34;10380956;28;20124;-71
2023/06/06 14:39:21;;;;;;;3.63;3.42;;;;;;;18.71;100.00;100137.38;10380254;28;20038;-71
2023/06/06 14:44:25;;;;;;;3.35;3.05;;;;;;;18.85;96.98;100142.66;10378708;28;20053;-71
2023/06/06 14:49:27;;;;;;;3.22;3.03;;;;;;;18.94;97.34;100130.56;10379178;28;20073;-71
2023/06/06 14:54:29;;;;;;;4.28;3.60;;;;;;;18.75;99.16;100133.56;10378772;28;20056;-71
2023/06/06 14:59:31;;;;;;;3.63;3.42;;;;;;;18.71;99.09;100134.72;10378760;28;20426;-71
2023/06/06 15:04:34;;;;;;;3.75;3.45;;;;;;;18.76;97.61;100133.44;10378687;28;20069;-71
2023/06/06 15:09:37;;;;;;;3.17;2.95;;;;;;;18.81;95.29;100134.00;10379487;28;20046;-71
2023/06/06 15:14:39;;;;;;;3.58;3.33;;;;;;;18.83;98.62;100132.13;10378274;28;20048;-71
2023/06/06 15:19:43;;;;;;;4.72;3.40;;;;;;;18.98;98.45;100132.91;10377760;28;20038;-71
2023/06/06 15:24:45;;;;;;;4.07;3.70;;;;;;;18.99;95.83;100129.31;10377075;28;20575;-71
2023/06/06 15:29:48;;;;;;;3.70;3.40;;;;;;;19.03;99.70;100133.47;10375689;28;20555;-71
2023/06/06 15:34:50;;;;;;;4.05;3.75;;;;;;;19.19;96.33;100135.16;10376884;28;20042;-71
2023/06/06 15:39:52;;;;;;;4.72;4.38;;;;;;;19.32;97.25;100131.56;10376579;28;20062;-71
2023/06/06 15:44:56;;;;;;;4.10;3.90;;;;;;;19.27;95.85;100135.50;10377165;28;20052;-71
2023/06/06 15:49:58;;;;;;;5.43;5.10;;;;;;;19.24;96.90;100120.56;10377373;28;20038;-69
2023/06/06 15:55:01;;;;;;;5.30;5.00;;;;;;;18.88;100.00;100116.69;10375130;28;20045;-69
2023/06/06 16:00:06;;;;;;;5.47;5.07;;;;;;;18.83;100.00;100116.13;10377364;28;20059;-69
2023/06/06 16:05:08;;;;;;;5.85;5.40;;;;;;;18.89;100.00;100112.22;10377753;28;20041;-71
2023/06/06 16:10:10;;;;;;;4.97;4.50;;;;;;;18.98;100.00;100114.28;10376542;28;20124;-71
2023/06/06 16:15:12;;;;;;;4.50;4.20;;;;;;;19.16;97.35;100107.72;10376533;28;20069;-70
2023/06/06 16:20:14;;;;;;;4.13;3.83;;;;;;;19.27;97.21;100114.19;10376483;28;20506;-71
2023/06/06 16:25:16;;;;;;;4.47;4.10;;;;;;;19.20;99.36;100115.53;10375176;28;20066;-71
2023/06/06 16:30:18;;;;;;;4.55;4.18;;;;;;;19.06;100.00;100116.44;10375724;28;20046;-69
2023/06/06 16:35:20;;;;;;;4.60;3.67;;;;;;;19.03;98.90;100122.81;10373916;28;20137;-69
2023/06/06 16:40:22;;;;;;;3.88;3.65;;;;;;;19.03;99.13;100122.81;10375801;28;20112;-69
2023/06/06 16:45:24;;;;;;;4.03;3.65;;;;;;;18.91;99.46;100123.63;10375318;28;20052;-69
2023/06/06 16:50:25;;;;;;;3.70;3.40;;;;;;;19.16;95.63;100121.06;10375447;28;20048;-69
2023/06/06 16:55:27;;;;;;;4.20;3.80;;;;;;;19.02;96.08;100123.78;10374166;28;20423;-70
2023/06/06 17:00:29;;;;;;;4.47;4.18;;;;;;;18.88;98.46;100126.50;10374350;28;20416;-70
2023/06/06 17:05:31;;;;;;;4.70;4.30;;;;;;;18.90;99.38;100130.78;10374020;28;20069;-70
2023/06/06 17:10:33;;;;;;;5.65;4.90;;;;;;;18.66;100.00;100127.81;10382586;28;20046;-70
2023/06/06 17:15:35;;;;;;;5.13;4.63;;;;;;;18.72;100.00;100131.94;10382902;28;20045;-71
2023/06/06 17:20:38;;;;;;;5.35;4.95;;;;;;;18.52;100.00;100130.53;10380806;28;20048;-69
2023/06/06 17:25:40;;;;;;;5.68;5.28;;;;;;;18.54;100.00;100130.41;10381804;28;20419;-69
2023/06/06 17:30:53;;;;;;;5.38;5.03;;;;;;;18.37;100.00;100118.16;10381448;28;20046;-69
2023/06/06 17:35:55;;;;;;;6.00;5.45;;;;;;;18.44;100.00;100123.97;10381126;28;20152;-69
2023/06/06 17:40:57;;;;;;;6.45;5.57;;;;;;;18.44;100.00;100116.84;10381858;28;20038;-70
2023/06/06 17:45:59;;;;;;;5.47;5.00;;;;;;;18.25;100.00;100110.97;10380891;28;20458;-69
2023/06/06 17:51:01;;;;;;;6.78;5.47;;;;;;;18.28;100.00;100118.75;10380541;28;20038;-69
2023/06/06 17:56:02;;;;;;;5.30;4.90;;;;;;;18.35;100.00;100114.75;10380992;28;20116;-70
2023/06/06 18:01:04;;;;;;;6.43;5.93;;;;;;;18.16;100.00;100115.06;10379021;28;20559;-70
2023/06/06 18:06:06;;;;;;;5.88;5.43;;;;;;;18.23;100.00;100124.34;10380147;28;20471;-69
2023/06/06 18:11:09;;;;;;;6.18;5.75;;;;;;;18.31;100.00;100122.06;10381145;28;20044;-69
2023/06/06 18:16:11;;;;;;;6.90;6.43;;;;;;;18.06;100.00;100124.53;10379746;28;20495;-70
2023/06/06 18:21:13;;;;;;;6.88;6.38;;;;;;;18.23;100.00;100119.03;10379905;28;20404;-70
2023/06/06 18:26:15;;;;;;;6.70;6.20;;;;;;;18.13;100.00;100125.88;10380091;28;20050;-71
2023/06/06 18:31:19;;;;;;;6.35;5.95;;;;;;;17.99;100.00;100128.53;10380323;28;20125;-71
2023/06/06 18:36:39;;;;;;;7.47;6.90;;;;;;;17.99;100.00;100132.03;10377216;28;20046;-70
2023/06/06 18:41:40;;;;;;;6.50;6.00;;;;;;;18.18;100.00;100130.91;10378909;28;20384;-71
2023/06/06 18:46:42;;;;;;;6.10;5.70;;;;;;;18.07;100.00;100136.91;10379570;28;20125;-70
2023/06/06 18:51:47;;;;;;;6.95;6.45;;;;;;;17.97;100.00;100138.38;10380182;28;20488;-69
2023/06/06 18:56:49;;;;;;;6.55;6.13;;;;;;;17.97;100.00;100144.56;10379336;28;20132;-71
2023/06/06 19:01:51;;;;;;;7.07;6.57;;;;;;;18.01;100.00;100148.75;10379091;28;20068;-69
2023/06/06 19:06:53;;;;;;;7.25;6.63;;;;;;;18.12;100.00;100153.44;10378930;28;20038;-70
2023/06/06 19:11:55;;;;;;;7.32;6.72;;;;;;;18.04;100.00;100164.53;10378918;28;20041;-70
2023/06/06 19:16:57;;;;;;;7.38;6.80;;;;;;;17.87;100.00;100167.34;10378037;28;20058;-70
2023/06/06 19:21:59;;;;;;;8.15;7.45;;;;;;;17.74;100.00;100167.22;10377550;28;20121;-70
2023/06/06 19:27:01;;;;;;;7.70;7.15;;;;;;;17.77;100.00;100180.34;10404798;28;20069;-70
2023/06/06 19:32:03;;;;;;;8.82;8.23;;;;;;;17.75;100.00;100181.38;10418909;28;20051;-70
2023/06/06 19:37:08;;;;;;;8.48;7.88;;;;;;;17.59;100.00;100181.38;10427031;28;20041;-70
2023/06/06 19:42:14;;;;;;;10.50;9.77;;;;;;;17.50;100.00;100179.28;10453130;28;20051;-70
2023/06/06 19:47:16;;;;;;;9.02;8.43;;;;;;;17.61;100.00;100185.66;10418461;28;20434;-71
2023/06/06 19:52:17;;;;;;;10.10;9.40;;;;;;;17.45;100.00;100191.97;10430839;28;20049;-69
2023/06/06 19:57:19;;;;;;;9.70;9.10;;;;;;;17.60;100.00;100185.75;10458432;28;20040;-69
2023/06/06 20:02:22;;;;;;;9.70;9.18;;;;;;;17.44;100.00;100190.22;10458534;28;20141;-69
2023/06/06 20:07:24;;;;;;;10.70;10.00;;;;;;;17.34;100.00;100192.56;10458402;28;20437;-69
2023/06/06 20:12:26;;;;;;;11.38;10.40;;;;;;;17.31;100.00;100187.41;10419054;28;20080;-70
2023/06/06 20:17:28;;;;;;;11.73;11.00;;;;;;;17.32;100.00;100195.31;10416053;28;20045;-70
2023/06/06 20:22:30;;;;;;;9.25;8.65;;;;;;;17.31;100.00;100190.06;10416250;28;20045;-69
2023/06/06 20:27:33;;;;;;;10.75;10.00;;;;;;;17.29;100.00;100195.50;10433188;28;20119;-70
2023/06/06 20:32:35;;;;;;;14.13;13.07;;;;;;;17.23;100.00;100192.34;10455819;28;20064;-70
2023/06/06 20:37:37;;;;;;;10.27;9.68;;;;;;;17.27;100.00;100183.25;10457173;28;20045;-71
2023/06/06 20:42:40;;;;;;;14.15;13.25;;;;;;;17.21;100.00;100189.75;10456471;28;20124;-70
2023/06/06 20:47:43;;;;;;;13.88;13.05;;;;;;;17.15;100.00;100196.28;10456728;28;20052;-70
2023/06/06 20:52:45;;;;;;;13.23;12.27;;;;;;;17.11;100.00;100193.88;10456291;28;20510;-70
2023/06/06 20:57:47;;;;;;;14.65;13.60;;;;;;;17.12;100.00;100192.94;10455864;28;20076;-70
2023/06/06 21:02:50;;;;;;;12.48;11.77;;;;;;;17.11;100.00;100189.41;10456327;28;20463;-70
2023/06/06 21:07:52;;;;;;;13.98;12.95;;;;;;;17.44;100.00;100195.56;10456451;28;20117;-70
2023/06/06 21:12:54;;;;;;;13.93;13.13;;;;;;;17.62;100.00;100200.69;10456794;28;20387;-70
2023/06/06 21:17:56;;;;;;;15.75;14.85;;;;;;;17.46;100.00;100197.19;10456575;28;20052;-70
2023/06/06 21:22:58;;;;;;;15.05;14.05;;;;;;;17.12;100.00;100200.91;10456749;28;20091;-70
2023/06/06 21:28:00;;;;;;;15.68;14.32;;;;;;;16.90;100.00;100195.94;10455989;28;20093;-70
2023/06/06 21:33:03;;;;;;;13.15;12.35;;;;;;;16.86;100.00;100194.38;10454907;28;20048;-70
2023/06/06 21:38:05;;;;;;;13.73;12.93;;;;;;;16.87;100.00;100183.69;10456608;28;20041;-70
2023/06/06 21:43:07;;;;;;;12.48;11.70;;;;;;;16.92;100.00;100187.91;10455803;28;20495;-70
2023/06/06 21:48:08;;;;;;;16.73;15.73;;;;;;;17.06;100.00;100178.22;10455714;28;20087;-70
2023/06/06 21:53:10;;;;;;;17.23;16.13;;;;;;;16.89;100.00;100186.25;10457668;28;20380;-70
2023/06/06 21:58:12;;;;;;;15.93;14.93;;;;;;;16.82;100.00;100195.50;10464112;28;20124;-70
2023/06/06 22:03:14;;;;;;;16.20;15.10;;;;;;;16.85;100.00;100197.97;10463518;28;20049;-71
2023/06/06 22:08:15;;;;;;;16.30;15.30;;;;;;;16.80;100.00;100192.06;10462011;28;20072;-70
2023/06/06 22:13:18;;;;;;;19.77;18.33;;;;;;;16.75;100.00;100180.84;10461328;28;20114;-70
2023/06/06 22:18:20;;;;;;;16.08;15.15;;;;;;;16.75;100.00;100186.16;10462219;28;20324;-70
2023/06/06 22:23:22;;;;;;;21.05;19.70;;;;;;;16.63;100.00;100185.84;10462235;28;20556;-70
2023/06/06 22:28:34;;;;;;;19.25;18.15;;;;;;;16.65;100.00;100183.13;10463402;28;20040;-73
2023/06/06 22:33:36;;;;;;;15.05;14.15;;;;;;;16.72;100.00;100175.69;10354396;28;20101;-69
2023/06/06 22:38:38;;;;;;;18.13;16.65;;;;;;;16.74;100.00;100163.22;10377540;28;20102;-69
2023/06/06 22:43:39;;;;;;;19.92;18.83;;;;;;;17.15;100.00;100180.34;10395475;28;20118;-68
2023/06/06 22:48:41;;;;;;;19.27;18.17;;;;;;;16.67;100.00;100178.59;10379921;28;20555;-68
2023/06/06 22:53:43;;;;;;;16.42;15.45;;;;;;;16.52;100.00;100174.97;10379861;28;20499;-68
2023/06/06 22:58:45;;;;;;;23.42;21.98;;;;;;;16.40;100.00;100176.47;10382960;28;20117;-69